Arviat - eastern half: Past 24 Hour Conditions

 

Hall Beach Airport

04:00 PM EST 27 November 2014
This table is a summary of hourly weather conditions for the past 24 hours.
Date / Time
(EST)
Wind(knots) Conditions Visibility(km) Pressure(kPa) Air tempC) Relative humidity(%) Dew pointC) Wind Chill
27 November 2014
16:00 NNW 11 Light Snow 2 100.3 -29 78 -31 -42
15:00 N 10 Light Snow 6 100.3 -23 83 -25 -34
14:00 NNE 11 Light Snow 6 100.3 -24 82 -26 -35
13:00 NNE 11 Mostly Cloudy 11 100.2 -23 82 -25 -35
12:00 NNE 13 Mostly Cloudy 16 100.2 -23 82 -25 -35
11:00 NE 11 Cloudy 16 100.3 -23 81 -25 -34
10:00 NNE 11 Mist 8 100.3 -22 82 -24 -33
9:00 N 3 Light Snow 8 100.3 -27 78 -30 -34
8:00 NW 9 Light Snow 4 100.3 -28 79 -30 -39
7:00 NNW 12 Light Snow 2 100.3 -27 79 -30 -40
6:00 NNW 12 Light Snow 2 100.3 -27 79 -30 -40
5:00 NW 9 Light Snow 3 100.3 -29 78 -32 -41
4:00 NW 11 Light Snow 10 100.3 -31 76 -34 -44
3:00 NW 10 Light Snow 8 100.3 -31 76 -34 -44
2:00 NW 12 Partly Cloudy 16 100.3 -33 75 -36 -48
1:00 NW 13 Clear 16 100.3 -33 74 -37 -49
0:00 NW 12 Light Snow 11 100.3 -32 75 -35 -47
26 November 2014
23:00 NW 11 Mostly Cloudy 16 100.2 -33 74 -36 -47
22:00 NW 13 Clear 16 100.2 -32 74 -36 -47
21:00 NW 13 Clear 16 100.2 -33 75 -36 -48
20:00 NW 10 Clear 16 100.3 -33 74 -36 -46
19:00 NW 13 Clear 24 100.2 -32 74 -36 -47
18:00 WNW 12 Ice Crystals 24 100.2 -32 74 -35 -46
17:00 NW 13 Ice Crystals 19 100.2 -30 76 -33 -45
16:00 NW 12 Light Snow 6 100.2 -30 76 -33 -44
 
Map of Arctic - Eastern Arctic marine weather areas Baker Lake Airport Chesterfield Inlet Airport Coral Harbour Airport Gjoa Haven Airport Kugaaruk Airport Rankin Inlet Airport Shepherd Bay Airport Whale Cove Airport Arctic Bay Brevoort Island Qikiqtarjuaq Airport Cape Dorset Airport Cape Dyer Cape Hooper Clyde Airport Grise Fiord Airport Hall Beach Airport Igloolik Airport Iqaluit Airport Longstaff Bluff Pangnirtung Airport Pond Inlet Airport Repulse Bay Airport Resolute Airport Resolution Island Rowley Island Airport Taloyoak Airport Wager Bay Akulivik Airport Ivujivik Airport Puvirnituq Airport Kangiqsujuaq Airport Kangirsuk Airport Quaqtaq Airport Tasiujaq Airport Cape Kakkiviak Cape Kiglapait Nain Airport Saglek Cape Mercy Kimmirut Airport Aupaluk Airport Salluit Airport Kangiqsualujjuaq Airport Fort Ross
Legend: buoyBuoy land stationLand Station